Attleboro Falls, Massachusetts
Current Conditions -  °F | °C
As of 11:15 PM on Wednesday 26 Nov 2014 (Local Time) from KSFZ Reporting Station
Overcast Overcast  
Wind Chill: -6°   Ceiling: 1400
Heat Index:   Visibility: 3mi
Dew Point: -4°   Wind: 17mph
Humidity: 75%   Direction: 360°N
Pressure: 29.65"   Gusts: 29mph
Location:  41.97°N, 71.32°W
Report Text: KSFZ 270415Z 36015G25KT 3SM SCT008 OVC014 00/M04 A2965 RMK AO1 P0001
Loading
Personal Weather Stations






























Interactive Weather Map New forecast layout! Learn more

10-Day Weather Forecast

Advertisements
Track Severe Weather on mobile